Weather at Hannover Airport

Public forecast

Using degrees Celsius for public forecast. Weather courtesy of forecast.io.

Current aviation weather report (METAR) for Hannover Airport

Report is more than 6 hours old.

2022/11/14 15:20 (retrieved 2 years ago)

EDDV 141520Z AUTO 10005KT CAVOK 07/05 Q1014 NOSIG

Aviation forecast (TAF) for Hannover Airport

Forecast is more than 12 hours old.

2023/02/22 18:27 (retrieved 1 year ago)

TAF EDDV 221700Z 2218/2318 14004KT 9999 SCT025 BECMG 2303/2305 BKN013 TEMPO 2306/2318 BKN007 PROB30 TEMPO 2307/2310 3500 -RA BR BKN004 BECMG 2309/2311 29007KT